sensor_id;sensor_type;location;lat;lon;timestamp;P1;durP1;ratioP1;P2;durP2;ratioP2
15198;SDS011;7700;48.654;9.070;2022-07-19T00:02:23;2.88;;;2.67;;
15198;SDS011;7700;48.654;9.070;2022-07-19T00:04:48;4.53;;;2.63;;
15198;SDS011;7700;48.654;9.070;2022-07-19T00:07:14;4.85;;;2.95;;
15198;SDS011;7700;48.654;9.070;2022-07-19T00:09:39;3.35;;;2.78;;
15198;SDS011;7700;48.654;9.070;2022-07-19T00:12:05;3.40;;;2.78;;
15198;SDS011;7700;48.654;9.070;2022-07-19T00:14:31;3.17;;;2.97;;
15198;SDS011;7700;48.654;9.070;2022-07-19T00:16:57;3.08;;;2.80;;
15198;SDS011;7700;48.654;9.070;2022-07-19T00:19:22;2.78;;;2.58;;
15198;SDS011;7700;48.654;9.070;2022-07-19T00:21:48;5.40;;;2.85;;
15198;SDS011;7700;48.654;9.070;2022-07-19T00:24:14;2.58;;;2.38;;
15198;SDS011;7700;48.654;9.070;2022-07-19T00:26:39;3.55;;;2.67;;
15198;SDS011;7700;48.654;9.070;2022-07-19T00:29:05;6.90;;;2.55;;
15198;SDS011;7700;48.654;9.070;2022-07-19T00:31:30;4.05;;;2.80;;
15198;SDS011;7700;48.654;9.070;2022-07-19T00:33:56;3.80;;;2.67;;
15198;SDS011;7700;48.654;9.070;2022-07-19T00:36:22;3.20;;;2.90;;
15198;SDS011;7700;48.654;9.070;2022-07-19T00:38:47;2.75;;;2.55;;
15198;SDS011;7700;48.654;9.070;2022-07-19T00:41:13;2.60;;;2.40;;
15198;SDS011;7700;48.654;9.070;2022-07-19T00:43:40;3.15;;;2.75;;
15198;SDS011;7700;48.654;9.070;2022-07-19T00:46:15;3.58;;;2.85;;
15198;SDS011;7700;48.654;9.070;2022-07-19T00:48:42;4.05;;;3.35;;
15198;SDS011;7700;48.654;9.070;2022-07-19T00:51:08;4.32;;;2.83;;
15198;SDS011;7700;48.654;9.070;2022-07-19T00:53:38;3.33;;;2.80;;
15198;SDS011;7700;48.654;9.070;2022-07-19T00:56:05;3.45;;;3.00;;
15198;SDS011;7700;48.654;9.070;2022-07-19T00:58:32;2.90;;;2.50;;
15198;SDS011;7700;48.654;9.070;2022-07-19T01:00:59;3.50;;;3.20;;
15198;SDS011;7700;48.654;9.070;2022-07-19T01:03:25;5.82;;;2.97;;
15198;SDS011;7700;48.654;9.070;2022-07-19T01:05:51;3.17;;;2.88;;
15198;SDS011;7700;48.654;9.070;2022-07-19T01:08:17;2.95;;;2.70;;
15198;SDS011;7700;48.654;9.070;2022-07-19T01:10:43;3.45;;;2.95;;
15198;SDS011;7700;48.654;9.070;2022-07-19T01:13:09;4.28;;;3.08;;
15198;SDS011;7700;48.654;9.070;2022-07-19T01:15:38;2.88;;;2.67;;
15198;SDS011;7700;48.654;9.070;2022-07-19T01:18:05;6.00;;;3.15;;
15198;SDS011;7700;48.654;9.070;2022-07-19T01:20:31;3.25;;;2.92;;
15198;SDS011;7700;48.654;9.070;2022-07-19T01:22:57;3.65;;;3.33;;
15198;SDS011;7700;48.654;9.070;2022-07-19T01:25:23;3.40;;;3.10;;
15198;SDS011;7700;48.654;9.070;2022-07-19T01:27:54;3.88;;;3.50;;
15198;SDS011;7700;48.654;9.070;2022-07-19T01:30:21;4.95;;;3.78;;
15198;SDS011;7700;48.654;9.070;2022-07-19T01:32:48;3.33;;;3.10;;
15198;SDS011;7700;48.654;9.070;2022-07-19T01:35:14;3.67;;;3.25;;
15198;SDS011;7700;48.654;9.070;2022-07-19T01:37:41;4.45;;;3.03;;
15198;SDS011;7700;48.654;9.070;2022-07-19T01:40:08;3.97;;;3.65;;
15198;SDS011;7700;48.654;9.070;2022-07-19T01:42:35;3.38;;;2.92;;
15198;SDS011;7700;48.654;9.070;2022-07-19T01:45:01;2.72;;;2.50;;
15198;SDS011;7700;48.654;9.070;2022-07-19T01:47:27;3.47;;;3.17;;
15198;SDS011;7700;48.654;9.070;2022-07-19T01:49:53;3.10;;;2.90;;
15198;SDS011;7700;48.654;9.070;2022-07-19T01:52:19;5.05;;;2.97;;
15198;SDS011;7700;48.654;9.070;2022-07-19T01:54:44;3.72;;;3.08;;
15198;SDS011;7700;48.654;9.070;2022-07-19T01:57:10;3.53;;;3.22;;
15198;SDS011;7700;48.654;9.070;2022-07-19T01:59:35;4.13;;;2.67;;
15198;SDS011;7700;48.654;9.070;2022-07-19T02:02:01;3.83;;;2.78;;
15198;SDS011;7700;48.654;9.070;2022-07-19T02:04:27;3.38;;;3.08;;
15198;SDS011;7700;48.654;9.070;2022-07-19T02:06:52;4.60;;;3.00;;
15198;SDS011;7700;48.654;9.070;2022-07-19T02:09:18;3.20;;;3.00;;
15198;SDS011;7700;48.654;9.070;2022-07-19T02:14:16;3.75;;;3.45;;
15198;SDS011;7700;48.654;9.070;2022-07-19T02:16:41;3.58;;;2.80;;
15198;SDS011;7700;48.654;9.070;2022-07-19T02:19:07;4.25;;;3.35;;
15198;SDS011;7700;48.654;9.070;2022-07-19T02:21:34;2.90;;;2.58;;
15198;SDS011;7700;48.654;9.070;2022-07-19T02:24:00;3.55;;;2.90;;
15198;SDS011;7700;48.654;9.070;2022-07-19T02:26:26;4.53;;;3.17;;
15198;SDS011;7700;48.654;9.070;2022-07-19T02:28:52;2.92;;;2.72;;
15198;SDS011;7700;48.654;9.070;2022-07-19T02:31:18;3.55;;;3.03;;
15198;SDS011;7700;48.654;9.070;2022-07-19T02:33:44;3.22;;;2.70;;
15198;SDS011;7700;48.654;9.070;2022-07-19T02:36:09;3.40;;;3.10;;
15198;SDS011;7700;48.654;9.070;2022-07-19T02:38:35;5.20;;;2.90;;
15198;SDS011;7700;48.654;9.070;2022-07-19T02:41:01;3.50;;;3.20;;
15198;SDS011;7700;48.654;9.070;2022-07-19T02:43:26;3.95;;;3.10;;
15198;SDS011;7700;48.654;9.070;2022-07-19T02:45:52;3.65;;;3.35;;
15198;SDS011;7700;48.654;9.070;2022-07-19T02:48:18;4.55;;;3.13;;
15198;SDS011;7700;48.654;9.070;2022-07-19T02:50:43;3.15;;;2.92;;
15198;SDS011;7700;48.654;9.070;2022-07-19T02:53:09;3.03;;;2.83;;
15198;SDS011;7700;48.654;9.070;2022-07-19T02:55:34;4.40;;;3.13;;
15198;SDS011;7700;48.654;9.070;2022-07-19T02:58:00;3.47;;;3.17;;
15198;SDS011;7700;48.654;9.070;2022-07-19T03:00:26;4.20;;;3.33;;
15198;SDS011;7700;48.654;9.070;2022-07-19T03:02:52;3.30;;;2.92;;
15198;SDS011;7700;48.654;9.070;2022-07-19T03:05:17;4.18;;;3.53;;
15198;SDS011;7700;48.654;9.070;2022-07-19T03:07:43;3.90;;;3.60;;
15198;SDS011;7700;48.654;9.070;2022-07-19T03:10:10;4.45;;;3.30;;
15198;SDS011;7700;48.654;9.070;2022-07-19T03:12:35;3.70;;;3.40;;
15198;SDS011;7700;48.654;9.070;2022-07-19T03:15:01;3.88;;;3.30;;
15198;SDS011;7700;48.654;9.070;2022-07-19T03:17:27;4.22;;;3.40;;
15198;SDS011;7700;48.654;9.070;2022-07-19T03:19:52;3.60;;;3.30;;
15198;SDS011;7700;48.654;9.070;2022-07-19T03:22:18;3.70;;;3.38;;
15198;SDS011;7700;48.654;9.070;2022-07-19T03:24:44;3.65;;;3.10;;
15198;SDS011;7700;48.654;9.070;2022-07-19T03:27:09;3.50;;;3.20;;
15198;SDS011;7700;48.654;9.070;2022-07-19T03:29:35;3.97;;;3.58;;
15198;SDS011;7700;48.654;9.070;2022-07-19T03:32:00;3.67;;;3.28;;
15198;SDS011;7700;48.654;9.070;2022-07-19T03:34:26;3.55;;;3.25;;
15198;SDS011;7700;48.654;9.070;2022-07-19T03:36:53;3.78;;;3.47;;
15198;SDS011;7700;48.654;9.070;2022-07-19T03:39:19;3.70;;;3.30;;
15198;SDS011;7700;48.654;9.070;2022-07-19T03:41:45;3.63;;;3.30;;
15198;SDS011;7700;48.654;9.070;2022-07-19T03:44:11;4.32;;;3.40;;
15198;SDS011;7700;48.654;9.070;2022-07-19T03:46:36;3.50;;;3.08;;
15198;SDS011;7700;48.654;9.070;2022-07-19T03:49:02;4.30;;;3.92;;
15198;SDS011;7700;48.654;9.070;2022-07-19T03:51:28;3.47;;;3.17;;
15198;SDS011;7700;48.654;9.070;2022-07-19T03:53:53;3.58;;;3.28;;
15198;SDS011;7700;48.654;9.070;2022-07-19T03:56:19;3.63;;;3.28;;
15198;SDS011;7700;48.654;9.070;2022-07-19T03:58:46;4.93;;;3.38;;
15198;SDS011;7700;48.654;9.070;2022-07-19T04:01:13;3.75;;;3.45;;
15198;SDS011;7700;48.654;9.070;2022-07-19T04:03:39;3.97;;;3.53;;
15198;SDS011;7700;48.654;9.070;2022-07-19T04:06:05;4.28;;;3.88;;
15198;SDS011;7700;48.654;9.070;2022-07-19T04:08:31;7.10;;;3.53;;
15198;SDS011;7700;48.654;9.070;2022-07-19T04:10:57;3.95;;;3.40;;
15198;SDS011;7700;48.654;9.070;2022-07-19T04:13:23;6.10;;;4.05;;
15198;SDS011;7700;48.654;9.070;2022-07-19T04:15:49;4.00;;;3.67;;
15198;SDS011;7700;48.654;9.070;2022-07-19T04:18:14;3.65;;;3.30;;
15198;SDS011;7700;48.654;9.070;2022-07-19T04:20:40;4.13;;;3.72;;
15198;SDS011;7700;48.654;9.070;2022-07-19T04:23:06;4.25;;;3.53;;
15198;SDS011;7700;48.654;9.070;2022-07-19T04:25:31;4.25;;;3.72;;
15198;SDS011;7700;48.654;9.070;2022-07-19T04:27:57;4.07;;;3.65;;
15198;SDS011;7700;48.654;9.070;2022-07-19T04:30:23;3.95;;;3.58;;
15198;SDS011;7700;48.654;9.070;2022-07-19T04:32:48;4.40;;;3.90;;
15198;SDS011;7700;48.654;9.070;2022-07-19T04:35:14;3.97;;;3.35;;
15198;SDS011;7700;48.654;9.070;2022-07-19T04:37:41;5.10;;;3.50;;
15198;SDS011;7700;48.654;9.070;2022-07-19T04:40:07;4.85;;;4.35;;
15198;SDS011;7700;48.654;9.070;2022-07-19T04:42:33;6.47;;;4.15;;
15198;SDS011;7700;48.654;9.070;2022-07-19T04:44:59;4.05;;;3.75;;
15198;SDS011;7700;48.654;9.070;2022-07-19T04:47:24;3.72;;;3.42;;
15198;SDS011;7700;48.654;9.070;2022-07-19T04:49:50;4.03;;;3.65;;
15198;SDS011;7700;48.654;9.070;2022-07-19T04:52:15;5.28;;;3.67;;
15198;SDS011;7700;48.654;9.070;2022-07-19T04:54:41;3.80;;;3.50;;
15198;SDS011;7700;48.654;9.070;2022-07-19T04:57:06;4.07;;;3.60;;
15198;SDS011;7700;48.654;9.070;2022-07-19T04:59:32;6.00;;;3.78;;
15198;SDS011;7700;48.654;9.070;2022-07-19T05:01:57;6.00;;;3.35;;
15198;SDS011;7700;48.654;9.070;2022-07-19T05:04:23;3.80;;;3.30;;
15198;SDS011;7700;48.654;9.070;2022-07-19T05:06:48;3.80;;;2.95;;
15198;SDS011;7700;48.654;9.070;2022-07-19T05:09:16;3.97;;;3.58;;
15198;SDS011;7700;48.654;9.070;2022-07-19T05:11:43;3.58;;;2.90;;
15198;SDS011;7700;48.654;9.070;2022-07-19T05:14:09;4.30;;;3.53;;
15198;SDS011;7700;48.654;9.070;2022-07-19T05:16:35;5.28;;;3.58;;
15198;SDS011;7700;48.654;9.070;2022-07-19T05:19:00;4.20;;;3.20;;
15198;SDS011;7700;48.654;9.070;2022-07-19T05:21:26;7.53;;;3.60;;
15198;SDS011;7700;48.654;9.070;2022-07-19T05:23:51;3.85;;;3.55;;
15198;SDS011;7700;48.654;9.070;2022-07-19T05:26:17;4.93;;;2.97;;
15198;SDS011;7700;48.654;9.070;2022-07-19T05:28:43;5.13;;;3.58;;
15198;SDS011;7700;48.654;9.070;2022-07-19T05:31:08;6.90;;;3.13;;
15198;SDS011;7700;48.654;9.070;2022-07-19T05:33:34;4.35;;;3.60;;
15198;SDS011;7700;48.654;9.070;2022-07-19T05:35:59;4.05;;;3.42;;
15198;SDS011;7700;48.654;9.070;2022-07-19T05:38:25;3.15;;;2.92;;
15198;SDS011;7700;48.654;9.070;2022-07-19T05:40:50;5.75;;;3.35;;
15198;SDS011;7700;48.654;9.070;2022-07-19T05:43:16;3.50;;;3.10;;
15198;SDS011;7700;48.654;9.070;2022-07-19T05:45:42;5.18;;;4.03;;
15198;SDS011;7700;48.654;9.070;2022-07-19T05:48:08;5.22;;;3.38;;
15198;SDS011;7700;48.654;9.070;2022-07-19T05:50:33;5.45;;;3.22;;
15198;SDS011;7700;48.654;9.070;2022-07-19T05:52:59;3.65;;;3.10;;
15198;SDS011;7700;48.654;9.070;2022-07-19T05:55:24;6.85;;;3.30;;
15198;SDS011;7700;48.654;9.070;2022-07-19T05:57:50;3.65;;;3.20;;
15198;SDS011;7700;48.654;9.070;2022-07-19T06:00:16;4.28;;;3.10;;
15198;SDS011;7700;48.654;9.070;2022-07-19T06:02:41;3.92;;;2.90;;
15198;SDS011;7700;48.654;9.070;2022-07-19T06:05:07;5.70;;;3.20;;
15198;SDS011;7700;48.654;9.070;2022-07-19T06:07:33;3.45;;;3.03;;
15198;SDS011;7700;48.654;9.070;2022-07-19T06:09:58;4.30;;;3.10;;
15198;SDS011;7700;48.654;9.070;2022-07-19T06:12:24;3.58;;;3.28;;
15198;SDS011;7700;48.654;9.070;2022-07-19T06:14:49;4.57;;;3.33;;
15198;SDS011;7700;48.654;9.070;2022-07-19T06:17:15;3.67;;;3.17;;
15198;SDS011;7700;48.654;9.070;2022-07-19T06:19:41;4.90;;;3.60;;
15198;SDS011;7700;48.654;9.070;2022-07-19T06:22:06;3.30;;;3.00;;
15198;SDS011;7700;48.654;9.070;2022-07-19T06:24:32;5.78;;;3.30;;
15198;SDS011;7700;48.654;9.070;2022-07-19T06:26:57;4.88;;;3.25;;
15198;SDS011;7700;48.654;9.070;2022-07-19T06:29:23;3.45;;;2.83;;
15198;SDS011;7700;48.654;9.070;2022-07-19T06:31:48;4.60;;;2.85;;
15198;SDS011;7700;48.654;9.070;2022-07-19T06:34:14;4.85;;;2.60;;
15198;SDS011;7700;48.654;9.070;2022-07-19T06:36:39;3.10;;;2.13;;
15198;SDS011;7700;48.654;9.070;2022-07-19T06:39:05;3.63;;;2.20;;
15198;SDS011;7700;48.654;9.070;2022-07-19T06:41:30;5.70;;;2.58;;
15198;SDS011;7700;48.654;9.070;2022-07-19T06:43:56;3.42;;;2.50;;
15198;SDS011;7700;48.654;9.070;2022-07-19T06:46:21;3.35;;;2.33;;
15198;SDS011;7700;48.654;9.070;2022-07-19T06:48:47;2.85;;;2.20;;
15198;SDS011;7700;48.654;9.070;2022-07-19T06:51:13;2.95;;;2.10;;
15198;SDS011;7700;48.654;9.070;2022-07-19T06:53:38;2.65;;;2.15;;
15198;SDS011;7700;48.654;9.070;2022-07-19T06:56:04;2.38;;;2.00;;
15198;SDS011;7700;48.654;9.070;2022-07-19T06:58:30;2.22;;;2.03;;
15198;SDS011;7700;48.654;9.070;2022-07-19T07:00:56;2.42;;;2.22;;
15198;SDS011;7700;48.654;9.070;2022-07-19T07:03:21;3.17;;;2.00;;
15198;SDS011;7700;48.654;9.070;2022-07-19T07:05:47;3.33;;;2.38;;
15198;SDS011;7700;48.654;9.070;2022-07-19T07:08:12;4.65;;;2.38;;
15198;SDS011;7700;48.654;9.070;2022-07-19T07:10:38;5.00;;;2.30;;
15198;SDS011;7700;48.654;9.070;2022-07-19T07:13:04;4.32;;;1.92;;
15198;SDS011;7700;48.654;9.070;2022-07-19T07:15:30;4.25;;;2.28;;
15198;SDS011;7700;48.654;9.070;2022-07-19T07:17:56;5.22;;;2.22;;
15198;SDS011;7700;48.654;9.070;2022-07-19T07:20:22;2.30;;;1.90;;
15198;SDS011;7700;48.654;9.070;2022-07-19T07:22:47;3.80;;;2.00;;
15198;SDS011;7700;48.654;9.070;2022-07-19T07:25:13;5.15;;;1.70;;
15198;SDS011;7700;48.654;9.070;2022-07-19T07:27:39;2.50;;;1.70;;
15198;SDS011;7700;48.654;9.070;2022-07-19T07:30:04;2.97;;;1.73;;
15198;SDS011;7700;48.654;9.070;2022-07-19T07:32:31;3.13;;;2.03;;
15198;SDS011;7700;48.654;9.070;2022-07-19T07:34:56;2.55;;;1.70;;
15198;SDS011;7700;48.654;9.070;2022-07-19T07:37:22;2.85;;;1.70;;
15198;SDS011;7700;48.654;9.070;2022-07-19T07:39:47;2.25;;;2.03;;
15198;SDS011;7700;48.654;9.070;2022-07-19T07:42:13;2.45;;;1.67;;
15198;SDS011;7700;48.654;9.070;2022-07-19T07:44:39;3.65;;;2.17;;
15198;SDS011;7700;48.654;9.070;2022-07-19T07:47:05;4.20;;;2.00;;
15198;SDS011;7700;48.654;9.070;2022-07-19T07:49:33;2.67;;;1.70;;
15198;SDS011;7700;48.654;9.070;2022-07-19T07:51:59;4.90;;;1.80;;
15198;SDS011;7700;48.654;9.070;2022-07-19T07:54:25;2.88;;;1.88;;
15198;SDS011;7700;48.654;9.070;2022-07-19T07:56:50;1.70;;;1.60;;
15198;SDS011;7700;48.654;9.070;2022-07-19T07:59:16;3.38;;;1.65;;
15198;SDS011;7700;48.654;9.070;2022-07-19T08:01:41;2.15;;;1.73;;
15198;SDS011;7700;48.654;9.070;2022-07-19T08:04:09;2.90;;;1.73;;
15198;SDS011;7700;48.654;9.070;2022-07-19T08:06:34;3.17;;;1.33;;
15198;SDS011;7700;48.654;9.070;2022-07-19T08:09:00;4.47;;;1.50;;
15198;SDS011;7700;48.654;9.070;2022-07-19T08:11:26;3.67;;;1.88;;
15198;SDS011;7700;48.654;9.070;2022-07-19T08:13:51;6.35;;;1.83;;
15198;SDS011;7700;48.654;9.070;2022-07-19T08:16:17;3.35;;;1.70;;
15198;SDS011;7700;48.654;9.070;2022-07-19T08:18:43;2.03;;;1.75;;
15198;SDS011;7700;48.654;9.070;2022-07-19T08:21:08;4.28;;;1.85;;
15198;SDS011;7700;48.654;9.070;2022-07-19T08:23:34;4.35;;;1.88;;
15198;SDS011;7700;48.654;9.070;2022-07-19T08:26:00;1.77;;;1.60;;
15198;SDS011;7700;48.654;9.070;2022-07-19T08:28:26;3.25;;;1.27;;
15198;SDS011;7700;48.654;9.070;2022-07-19T08:30:51;4.28;;;1.70;;
15198;SDS011;7700;48.654;9.070;2022-07-19T08:33:17;2.20;;;1.40;;
15198;SDS011;7700;48.654;9.070;2022-07-19T08:35:43;2.97;;;1.52;;
15198;SDS011;7700;48.654;9.070;2022-07-19T08:38:09;3.28;;;1.50;;
15198;SDS011;7700;48.654;9.070;2022-07-19T08:40:35;3.05;;;1.38;;
15198;SDS011;7700;48.654;9.070;2022-07-19T08:43:04;3.63;;;1.60;;
15198;SDS011;7700;48.654;9.070;2022-07-19T08:45:30;4.07;;;1.52;;
15198;SDS011;7700;48.654;9.070;2022-07-19T08:47:57;1.63;;;1.27;;
15198;SDS011;7700;48.654;9.070;2022-07-19T08:50:23;3.83;;;1.65;;
15198;SDS011;7700;48.654;9.070;2022-07-19T08:52:51;1.45;;;1.33;;
15198;SDS011;7700;48.654;9.070;2022-07-19T08:55:17;3.13;;;1.45;;
15198;SDS011;7700;48.654;9.070;2022-07-19T08:57:43;2.53;;;1.50;;
15198;SDS011;7700;48.654;9.070;2022-07-19T09:00:27;3.50;;;1.70;;
15198;SDS011;7700;48.654;9.070;2022-07-19T09:02:56;8.52;;;1.60;;
15198;SDS011;7700;48.654;9.070;2022-07-19T09:05:24;2.67;;;1.90;;
15198;SDS011;7700;48.654;9.070;2022-07-19T09:08:01;2.78;;;1.40;;
15198;SDS011;7700;48.654;9.070;2022-07-19T09:10:27;2.33;;;1.85;;
15198;SDS011;7700;48.654;9.070;2022-07-19T09:13:12;6.38;;;2.47;;
15198;SDS011;7700;48.654;9.070;2022-07-19T09:15:40;2.65;;;1.60;;
15198;SDS011;7700;48.654;9.070;2022-07-19T09:18:12;2.00;;;1.42;;
15198;SDS011;7700;48.654;9.070;2022-07-19T09:20:38;2.70;;;1.70;;
15198;SDS011;7700;48.654;9.070;2022-07-19T09:23:04;2.08;;;1.40;;
15198;SDS011;7700;48.654;9.070;2022-07-19T09:25:31;5.72;;;2.03;;
15198;SDS011;7700;48.654;9.070;2022-07-19T09:27:58;2.17;;;1.65;;
15198;SDS011;7700;48.654;9.070;2022-07-19T09:35:39;4.30;;;1.92;;
15198;SDS011;7700;48.654;9.070;2022-07-19T09:38:48;7.20;;;2.25;;
15198;SDS011;7700;48.654;9.070;2022-07-19T09:43:52;2.13;;;1.65;;
15198;SDS011;7700;48.654;9.070;2022-07-19T09:51:36;2.13;;;1.80;;
15198;SDS011;7700;48.654;9.070;2022-07-19T09:54:03;3.13;;;1.80;;
15198;SDS011;7700;48.654;9.070;2022-07-19T09:56:30;2.72;;;1.67;;
15198;SDS011;7700;48.654;9.070;2022-07-19T09:58:57;2.60;;;1.75;;
15198;SDS011;7700;48.654;9.070;2022-07-19T10:03:30;2.38;;;1.80;;
15198;SDS011;7700;48.654;9.070;2022-07-19T10:05:56;2.03;;;1.88;;
15198;SDS011;7700;48.654;9.070;2022-07-19T10:08:22;3.67;;;1.88;;
15198;SDS011;7700;48.654;9.070;2022-07-19T10:10:48;2.83;;;1.75;;
15198;SDS011;7700;48.654;9.070;2022-07-19T10:13:13;1.80;;;1.70;;
15198;SDS011;7700;48.654;9.070;2022-07-19T10:15:41;5.18;;;2.00;;
15198;SDS011;7700;48.654;9.070;2022-07-19T10:18:10;2.45;;;1.80;;
15198;SDS011;7700;48.654;9.070;2022-07-19T10:20:38;2.72;;;2.10;;
15198;SDS011;7700;48.654;9.070;2022-07-19T10:23:07;2.50;;;2.10;;
15198;SDS011;7700;48.654;9.070;2022-07-19T10:25:39;4.00;;;2.00;;
15198;SDS011;7700;48.654;9.070;2022-07-19T10:28:31;2.08;;;1.90;;
15198;SDS011;7700;48.654;9.070;2022-07-19T10:31:02;1.88;;;1.77;;
15198;SDS011;7700;48.654;9.070;2022-07-19T10:35:58;3.92;;;1.80;;
15198;SDS011;7700;48.654;9.070;2022-07-19T10:42:05;3.88;;;2.28;;
15198;SDS011;7700;48.654;9.070;2022-07-19T10:45:08;2.20;;;2.00;;
15198;SDS011;7700;48.654;9.070;2022-07-19T10:49:47;3.08;;;2.03;;
15198;SDS011;7700;48.654;9.070;2022-07-19T11:00:26;4.68;;;2.22;;
15198;SDS011;7700;48.654;9.070;2022-07-19T11:05:57;4.32;;;1.88;;
15198;SDS011;7700;48.654;9.070;2022-07-19T11:08:34;3.85;;;2.10;;
15198;SDS011;7700;48.654;9.070;2022-07-19T11:11:05;2.53;;;1.92;;
15198;SDS011;7700;48.654;9.070;2022-07-19T11:13:33;3.80;;;2.15;;
15198;SDS011;7700;48.654;9.070;2022-07-19T11:16:00;4.32;;;2.22;;
15198;SDS011;7700;48.654;9.070;2022-07-19T11:18:28;3.30;;;1.90;;
15198;SDS011;7700;48.654;9.070;2022-07-19T11:20:58;6.45;;;2.47;;
15198;SDS011;7700;48.654;9.070;2022-07-19T11:23:28;4.72;;;2.30;;
15198;SDS011;7700;48.654;9.070;2022-07-19T11:28:50;5.10;;;2.47;;
15198;SDS011;7700;48.654;9.070;2022-07-19T11:33:43;3.88;;;2.28;;
15198;SDS011;7700;48.654;9.070;2022-07-19T11:36:10;2.40;;;2.20;;
15198;SDS011;7700;48.654;9.070;2022-07-19T11:38:40;3.22;;;2.20;;
15198;SDS011;7700;48.654;9.070;2022-07-19T11:41:11;3.30;;;2.22;;
15198;SDS011;7700;48.654;9.070;2022-07-19T11:43:37;3.40;;;2.50;;
15198;SDS011;7700;48.654;9.070;2022-07-19T11:46:03;2.20;;;1.85;;
15198;SDS011;7700;48.654;9.070;2022-07-19T11:48:30;6.72;;;2.33;;
15198;SDS011;7700;48.654;9.070;2022-07-19T11:51:06;2.78;;;1.98;;
15198;SDS011;7700;48.654;9.070;2022-07-19T11:53:33;5.63;;;2.47;;
15198;SDS011;7700;48.654;9.070;2022-07-19T11:56:02;4.07;;;2.50;;
15198;SDS011;7700;48.654;9.070;2022-07-19T11:58:28;2.45;;;2.20;;
15198;SDS011;7700;48.654;9.070;2022-07-19T12:01:02;3.85;;;2.10;;
15198;SDS011;7700;48.654;9.070;2022-07-19T12:03:31;6.80;;;3.00;;
15198;SDS011;7700;48.654;9.070;2022-07-19T12:05:58;3.40;;;2.47;;
15198;SDS011;7700;48.654;9.070;2022-07-19T12:08:35;4.13;;;2.20;;
15198;SDS011;7700;48.654;9.070;2022-07-19T12:11:43;3.47;;;2.17;;
15198;SDS011;7700;48.654;9.070;2022-07-19T12:14:19;2.85;;;2.10;;
15198;SDS011;7700;48.654;9.070;2022-07-19T12:16:47;3.63;;;2.30;;
15198;SDS011;7700;48.654;9.070;2022-07-19T12:19:14;3.40;;;2.30;;
15198;SDS011;7700;48.654;9.070;2022-07-19T12:21:43;2.95;;;2.20;;
15198;SDS011;7700;48.654;9.070;2022-07-19T12:29:29;2.60;;;2.40;;
15198;SDS011;7700;48.654;9.070;2022-07-19T12:32:04;5.03;;;2.33;;
15198;SDS011;7700;48.654;9.070;2022-07-19T12:34:43;4.30;;;2.30;;
15198;SDS011;7700;48.654;9.070;2022-07-19T12:37:21;2.53;;;1.90;;
15198;SDS011;7700;48.654;9.070;2022-07-19T12:39:55;4.68;;;2.30;;
15198;SDS011;7700;48.654;9.070;2022-07-19T12:42:21;3.05;;;2.30;;
15198;SDS011;7700;48.654;9.070;2022-07-19T12:44:47;5.05;;;2.53;;
15198;SDS011;7700;48.654;9.070;2022-07-19T12:47:14;4.22;;;2.28;;
15198;SDS011;7700;48.654;9.070;2022-07-19T12:49:44;2.92;;;2.60;;
15198;SDS011;7700;48.654;9.070;2022-07-19T12:52:13;2.95;;;2.63;;
15198;SDS011;7700;48.654;9.070;2022-07-19T12:54:39;5.03;;;2.58;;
15198;SDS011;7700;48.654;9.070;2022-07-19T12:57:04;4.25;;;2.63;;
15198;SDS011;7700;48.654;9.070;2022-07-19T12:59:30;2.47;;;2.10;;
15198;SDS011;7700;48.654;9.070;2022-07-19T13:02:05;4.03;;;1.92;;
15198;SDS011;7700;48.654;9.070;2022-07-19T13:04:32;2.70;;;2.20;;
15198;SDS011;7700;48.654;9.070;2022-07-19T13:06:57;4.70;;;2.45;;
15198;SDS011;7700;48.654;9.070;2022-07-19T13:09:23;4.47;;;2.20;;
15198;SDS011;7700;48.654;9.070;2022-07-19T13:11:48;6.15;;;2.40;;
15198;SDS011;7700;48.654;9.070;2022-07-19T13:14:14;3.17;;;2.40;;
15198;SDS011;7700;48.654;9.070;2022-07-19T13:16:40;3.88;;;2.50;;
15198;SDS011;7700;48.654;9.070;2022-07-19T13:19:05;2.88;;;2.17;;
15198;SDS011;7700;48.654;9.070;2022-07-19T13:21:31;3.45;;;2.40;;
15198;SDS011;7700;48.654;9.070;2022-07-19T13:23:57;4.28;;;2.28;;
15198;SDS011;7700;48.654;9.070;2022-07-19T13:26:23;4.43;;;2.40;;
15198;SDS011;7700;48.654;9.070;2022-07-19T13:28:49;4.03;;;2.10;;
15198;SDS011;7700;48.654;9.070;2022-07-19T13:31:14;7.43;;;2.63;;
15198;SDS011;7700;48.654;9.070;2022-07-19T13:33:40;4.30;;;2.45;;
15198;SDS011;7700;48.654;9.070;2022-07-19T13:36:05;8.25;;;2.38;;
15198;SDS011;7700;48.654;9.070;2022-07-19T13:38:31;3.58;;;2.40;;
15198;SDS011;7700;48.654;9.070;2022-07-19T13:40:57;3.60;;;2.00;;
15198;SDS011;7700;48.654;9.070;2022-07-19T13:43:22;3.22;;;1.98;;
15198;SDS011;7700;48.654;9.070;2022-07-19T13:45:48;4.03;;;2.28;;
15198;SDS011;7700;48.654;9.070;2022-07-19T13:48:15;6.65;;;2.67;;
15198;SDS011;7700;48.654;9.070;2022-07-19T13:50:41;2.60;;;2.30;;
15198;SDS011;7700;48.654;9.070;2022-07-19T13:53:06;2.88;;;2.13;;
15198;SDS011;7700;48.654;9.070;2022-07-19T13:55:32;3.10;;;2.13;;
15198;SDS011;7700;48.654;9.070;2022-07-19T13:57:57;2.17;;;1.42;;
15198;SDS011;7700;48.654;9.070;2022-07-19T14:00:23;4.72;;;2.45;;
15198;SDS011;7700;48.654;9.070;2022-07-19T14:02:49;3.20;;;1.83;;
15198;SDS011;7700;48.654;9.070;2022-07-19T14:05:15;2.03;;;1.92;;
15198;SDS011;7700;48.654;9.070;2022-07-19T14:07:41;4.43;;;2.30;;
15198;SDS011;7700;48.654;9.070;2022-07-19T14:10:07;2.53;;;1.90;;
15198;SDS011;7700;48.654;9.070;2022-07-19T14:12:33;5.15;;;2.30;;
15198;SDS011;7700;48.654;9.070;2022-07-19T14:14:58;6.45;;;2.25;;
15198;SDS011;7700;48.654;9.070;2022-07-19T14:17:24;4.53;;;2.65;;
15198;SDS011;7700;48.654;9.070;2022-07-19T14:19:50;2.58;;;2.13;;
15198;SDS011;7700;48.654;9.070;2022-07-19T14:22:15;4.65;;;2.33;;
15198;SDS011;7700;48.654;9.070;2022-07-19T14:24:41;3.97;;;2.20;;
15198;SDS011;7700;48.654;9.070;2022-07-19T14:27:07;5.13;;;2.50;;
15198;SDS011;7700;48.654;9.070;2022-07-19T14:29:32;3.28;;;2.08;;
15198;SDS011;7700;48.654;9.070;2022-07-19T14:31:58;2.75;;;2.42;;
15198;SDS011;7700;48.654;9.070;2022-07-19T14:34:24;4.93;;;2.65;;
15198;SDS011;7700;48.654;9.070;2022-07-19T14:36:50;5.95;;;2.47;;
15198;SDS011;7700;48.654;9.070;2022-07-19T14:39:16;5.43;;;2.72;;
15198;SDS011;7700;48.654;9.070;2022-07-19T14:41:41;5.03;;;2.58;;
15198;SDS011;7700;48.654;9.070;2022-07-19T14:44:07;5.90;;;2.42;;
15198;SDS011;7700;48.654;9.070;2022-07-19T14:46:33;3.95;;;2.42;;
15198;SDS011;7700;48.654;9.070;2022-07-19T14:48:59;5.80;;;2.28;;
15198;SDS011;7700;48.654;9.070;2022-07-19T14:51:24;4.07;;;2.60;;
15198;SDS011;7700;48.654;9.070;2022-07-19T14:53:50;3.08;;;2.20;;
15198;SDS011;7700;48.654;9.070;2022-07-19T14:56:16;3.28;;;2.42;;
15198;SDS011;7700;48.654;9.070;2022-07-19T14:58:42;4.80;;;2.20;;
15198;SDS011;7700;48.654;9.070;2022-07-19T15:01:07;5.32;;;2.35;;
15198;SDS011;7700;48.654;9.070;2022-07-19T15:03:33;3.55;;;2.67;;
15198;SDS011;7700;48.654;9.070;2022-07-19T15:05:58;6.03;;;2.33;;
15198;SDS011;7700;48.654;9.070;2022-07-19T15:08:24;5.85;;;2.40;;
15198;SDS011;7700;48.654;9.070;2022-07-19T15:10:50;6.00;;;2.42;;
15198;SDS011;7700;48.654;9.070;2022-07-19T15:13:16;6.53;;;2.47;;
15198;SDS011;7700;48.654;9.070;2022-07-19T15:15:41;3.90;;;2.50;;
15198;SDS011;7700;48.654;9.070;2022-07-19T15:18:07;7.22;;;2.35;;
15198;SDS011;7700;48.654;9.070;2022-07-19T15:20:32;2.60;;;2.40;;
15198;SDS011;7700;48.654;9.070;2022-07-19T15:22:58;4.70;;;2.10;;
15198;SDS011;7700;48.654;9.070;2022-07-19T15:25:24;4.05;;;1.98;;
15198;SDS011;7700;48.654;9.070;2022-07-19T15:27:50;5.70;;;2.35;;
15198;SDS011;7700;48.654;9.070;2022-07-19T15:30:18;3.10;;;2.33;;
15198;SDS011;7700;48.654;9.070;2022-07-19T15:32:44;2.40;;;2.17;;
15198;SDS011;7700;48.654;9.070;2022-07-19T15:35:10;5.38;;;2.50;;
15198;SDS011;7700;48.654;9.070;2022-07-19T15:37:36;5.20;;;2.40;;
15198;SDS011;7700;48.654;9.070;2022-07-19T15:40:02;3.92;;;2.30;;
15198;SDS011;7700;48.654;9.070;2022-07-19T15:42:28;5.97;;;2.25;;
15198;SDS011;7700;48.654;9.070;2022-07-19T15:44:54;6.22;;;2.38;;
15198;SDS011;7700;48.654;9.070;2022-07-19T15:47:19;4.43;;;2.42;;